createdAt,value
2019-03-29T00:00:07.601Z,10.30
2019-03-29T00:02:36.023Z,10.30
2019-03-29T00:05:04.547Z,10.30
2019-03-29T00:07:39.428Z,10.20
2019-03-29T00:10:06.176Z,10.20
2019-03-29T00:12:34.583Z,10.20
2019-03-29T00:15:02.978Z,10.10
2019-03-29T00:17:31.391Z,10.00
2019-03-29T00:19:59.812Z,10.00
2019-03-29T00:22:28.211Z,9.90
2019-03-29T00:24:56.625Z,9.80
2019-03-29T00:27:25.011Z,9.60
2019-03-29T00:29:53.419Z,9.50
2019-03-29T00:32:21.811Z,9.40
2019-03-29T00:34:50.224Z,9.30
2019-03-29T00:37:18.615Z,9.10
2019-03-29T00:39:47.017Z,9.10
2019-03-29T00:42:15.454Z,9.00
2019-03-29T00:44:44.298Z,8.90
2019-03-29T00:47:12.699Z,8.80
2019-03-29T00:49:41.226Z,8.90
2019-03-29T00:52:09.599Z,8.90
2019-03-29T00:54:38.933Z,8.90
2019-03-29T00:57:07.337Z,8.90
2019-03-29T00:59:35.737Z,9.00
2019-03-29T01:02:04.132Z,9.00
2019-03-29T01:04:32.530Z,9.10
2019-03-29T01:07:00.922Z,9.40
2019-03-29T01:09:29.335Z,9.50
2019-03-29T01:11:57.721Z,9.60
2019-03-29T01:14:26.135Z,9.80
2019-03-29T01:16:54.537Z,9.90
2019-03-29T01:19:23.019Z,10.00
2019-03-29T01:21:51.407Z,10.10
2019-03-29T01:24:19.822Z,10.00
2019-03-29T01:26:48.208Z,10.10
2019-03-29T01:29:16.622Z,10.10
2019-03-29T01:31:45.011Z,10.10
2019-03-29T01:34:13.430Z,10.10
2019-03-29T01:36:41.822Z,10.00
2019-03-29T01:39:10.226Z,10.00
2019-03-29T01:41:38.629Z,10.00
2019-03-29T01:44:07.043Z,9.90
2019-03-29T01:46:35.452Z,9.90
2019-03-29T01:49:03.927Z,9.80
2019-03-29T01:51:32.337Z,9.70
2019-03-29T01:54:00.753Z,9.70
2019-03-29T01:56:29.160Z,9.70
2019-03-29T01:58:57.568Z,9.70
2019-03-29T02:01:28.428Z,9.70
2019-03-29T02:03:57.467Z,9.80
2019-03-29T02:06:25.885Z,9.80
2019-03-29T02:08:54.283Z,9.70
2019-03-29T02:11:22.682Z,9.70
2019-03-29T02:13:51.967Z,9.70
2019-03-29T02:16:20.382Z,9.70
2019-03-29T02:18:48.810Z,9.60
2019-03-29T02:21:17.753Z,9.60
2019-03-29T02:23:46.171Z,9.60
2019-03-29T02:26:14.558Z,9.60
2019-03-29T02:28:42.996Z,9.60
2019-03-29T02:31:11.397Z,9.60
2019-03-29T02:33:39.832Z,9.40
2019-03-29T02:36:08.233Z,9.40
2019-03-29T02:38:47.401Z,9.40
2019-03-29T02:41:06.769Z,9.30
2019-03-29T02:43:35.198Z,9.30
2019-03-29T02:46:03.629Z,9.30
2019-03-29T02:48:32.118Z,9.20
2019-03-29T02:51:00.669Z,9.20
2019-03-29T02:53:29.268Z,9.20
2019-03-29T02:55:58.503Z,9.20
2019-03-29T02:58:26.923Z,9.20
2019-03-29T03:00:55.368Z,9.20
2019-03-29T03:03:23.836Z,9.10
2019-03-29T03:05:52.254Z,9.10
2019-03-29T03:08:20.640Z,9.20
2019-03-29T03:10:49.080Z,9.20
2019-03-29T03:13:17.484Z,9.20
2019-03-29T03:15:45.892Z,9.20
2019-03-29T03:18:14.307Z,9.20
2019-03-29T03:20:42.707Z,9.10
2019-03-29T03:23:11.141Z,9.10
2019-03-29T03:25:39.550Z,9.00
2019-03-29T03:28:08.046Z,8.90
2019-03-29T03:30:36.441Z,8.80
2019-03-29T03:33:05.032Z,8.80
2019-03-29T03:35:33.422Z,8.70
2019-03-29T03:38:01.846Z,8.50
2019-03-29T03:40:30.517Z,8.30
2019-03-29T03:42:58.946Z,8.10
2019-03-29T03:45:27.442Z,7.90
2019-03-29T03:47:55.907Z,7.80
2019-03-29T03:50:35.823Z,7.90
2019-03-29T03:53:04.686Z,8.00
2019-03-29T03:55:33.551Z,7.90
2019-03-29T03:58:03.633Z,8.00
2019-03-29T04:00:50.341Z,8.00
2019-03-29T04:03:18.903Z,8.10
2019-03-29T04:05:47.754Z,8.00
2019-03-29T04:08:16.206Z,8.00
2019-03-29T04:10:44.597Z,7.90
2019-03-29T04:13:13.096Z,7.80
2019-03-29T04:15:41.578Z,7.80
2019-03-29T04:18:10.007Z,7.80
2019-03-29T04:20:38.478Z,7.70
2019-03-29T04:23:06.989Z,7.70
2019-03-29T04:25:35.388Z,7.70
2019-03-29T04:28:04.847Z,7.60
2019-03-29T04:30:33.271Z,7.60
2019-03-29T04:33:01.660Z,7.50
2019-03-29T04:35:30.070Z,7.40
2019-03-29T04:37:58.479Z,7.40
2019-03-29T04:40:26.885Z,7.30
2019-03-29T04:42:55.293Z,7.30
2019-03-29T04:45:23.730Z,7.30
2019-03-29T04:47:52.132Z,7.30
2019-03-29T04:50:20.540Z,7.20
2019-03-29T04:52:48.995Z,7.30
2019-03-29T04:55:17.382Z,7.20
2019-03-29T04:57:45.802Z,7.30
2019-03-29T05:00:14.997Z,7.20
2019-03-29T05:02:43.434Z,7.30
2019-03-29T05:05:11.823Z,7.20
2019-03-29T05:07:40.249Z,7.20
2019-03-29T05:10:20.560Z,7.20
2019-03-29T05:12:39.137Z,7.30
2019-03-29T05:15:07.674Z,7.30
2019-03-29T05:17:36.173Z,7.30
2019-03-29T05:20:06.642Z,7.40
2019-03-29T05:22:35.047Z,7.40
2019-03-29T05:25:03.706Z,7.40
2019-03-29T05:27:32.125Z,7.30
2019-03-29T05:30:00.524Z,7.20
2019-03-29T05:32:28.954Z,7.20
2019-03-29T05:34:57.350Z,7.20
2019-03-29T05:37:25.769Z,7.10
2019-03-29T05:39:54.185Z,7.00
2019-03-29T05:42:22.583Z,7.00
2019-03-29T05:44:51.000Z,7.00
2019-03-29T05:47:19.405Z,7.10
2019-03-29T05:49:47.818Z,7.00
2019-03-29T05:52:16.672Z,7.10
2019-03-29T05:54:45.082Z,7.10
2019-03-29T05:57:13.481Z,7.00
2019-03-29T05:59:41.905Z,7.10
2019-03-29T06:02:10.309Z,7.00
2019-03-29T06:04:38.725Z,7.10
2019-03-29T06:07:07.114Z,7.10
2019-03-29T06:09:41.283Z,7.20
2019-03-29T06:12:09.691Z,7.40
2019-03-29T06:14:38.114Z,7.50
2019-03-29T06:17:06.545Z,7.60
2019-03-29T06:19:34.969Z,7.80
2019-03-29T06:22:03.380Z,8.00
2019-03-29T06:24:31.832Z,8.10
2019-03-29T06:27:00.232Z,8.20
2019-03-29T06:29:28.650Z,8.40
2019-03-29T06:31:57.049Z,8.50
2019-03-29T06:34:25.476Z,8.60
2019-03-29T06:36:54.615Z,8.80
2019-03-29T06:39:23.996Z,8.90
2019-03-29T06:41:52.415Z,9.10
2019-03-29T06:44:20.842Z,9.20
2019-03-29T06:46:49.251Z,9.20
2019-03-29T06:49:17.676Z,9.40
2019-03-29T06:51:46.083Z,9.50
2019-03-29T06:54:14.482Z,9.60
2019-03-29T06:56:42.897Z,9.70
2019-03-29T06:59:11.322Z,9.80
2019-03-29T07:01:39.720Z,9.80
2019-03-29T07:04:08.121Z,9.90
2019-03-29T07:06:36.521Z,10.00
2019-03-29T07:09:06.796Z,10.00
2019-03-29T07:11:35.221Z,10.10
2019-03-29T07:14:03.717Z,10.30
2019-03-29T07:16:32.130Z,10.40
2019-03-29T07:19:00.548Z,10.50
2019-03-29T07:21:28.953Z,10.60
2019-03-29T07:23:57.364Z,10.70
2019-03-29T07:26:25.781Z,10.90
2019-03-29T07:28:54.201Z,11.00
2019-03-29T07:31:22.593Z,11.20
2019-03-29T07:33:51.064Z,11.20
2019-03-29T07:36:19.475Z,11.20
2019-03-29T07:38:47.884Z,11.40
2019-03-29T07:41:30.659Z,11.50
2019-03-29T07:43:46.432Z,11.60
2019-03-29T07:46:14.857Z,11.70
2019-03-29T07:48:43.259Z,11.80
2019-03-29T07:51:11.743Z,11.90
2019-03-29T07:53:41.088Z,12.10
2019-03-29T07:56:09.516Z,12.20
2019-03-29T07:58:37.910Z,12.20
2019-03-29T08:01:06.345Z,12.20
2019-03-29T08:03:34.739Z,12.30
2019-03-29T08:06:03.163Z,12.50
2019-03-29T08:08:33.321Z,12.60
2019-03-29T08:11:02.619Z,12.80
2019-03-29T08:13:31.032Z,12.90
2019-03-29T08:15:59.452Z,13.10
2019-03-29T08:18:27.865Z,13.00
2019-03-29T08:20:56.279Z,13.10
2019-03-29T08:23:24.692Z,13.20
2019-03-29T08:25:53.135Z,13.30
2019-03-29T08:28:21.520Z,13.40
2019-03-29T08:30:49.957Z,13.50
2019-03-29T08:33:18.360Z,13.60
2019-03-29T08:35:46.781Z,13.80
2019-03-29T08:38:15.181Z,13.80
2019-03-29T08:40:45.189Z,13.90
2019-03-29T08:43:13.849Z,14.10
2019-03-29T08:45:43.209Z,14.30
2019-03-29T08:48:11.608Z,14.20
2019-03-29T08:50:40.110Z,14.30
2019-03-29T08:53:08.530Z,14.50
2019-03-29T08:55:45.612Z,14.60
2019-03-29T08:58:07.071Z,14.90
2019-03-29T09:00:35.499Z,15.20
2019-03-29T09:03:04.338Z,15.40
2019-03-29T09:05:32.824Z,15.30
2019-03-29T09:08:01.296Z,15.40
2019-03-29T09:10:29.714Z,15.50
2019-03-29T09:12:58.121Z,15.50
2019-03-29T09:15:26.546Z,15.70
2019-03-29T09:17:54.959Z,15.60
2019-03-29T09:20:23.364Z,15.70
2019-03-29T09:22:51.774Z,15.70
2019-03-29T09:25:21.160Z,15.70
2019-03-29T09:27:49.738Z,15.60
2019-03-29T09:30:18.293Z,15.80
2019-03-29T09:32:46.800Z,16.00
2019-03-29T09:35:15.327Z,16.30
2019-03-29T09:37:43.752Z,16.30
2019-03-29T09:40:31.567Z,16.40
2019-03-29T09:43:07.021Z,16.10
2019-03-29T09:45:30.098Z,16.10
2019-03-29T09:47:59.399Z,15.90
2019-03-29T09:50:27.804Z,15.70
2019-03-29T09:52:56.218Z,15.60
2019-03-29T09:55:24.631Z,15.70
2019-03-29T09:57:53.048Z,15.70
2019-03-29T10:00:23.446Z,15.60
2019-03-29T10:02:51.680Z,15.70
2019-03-29T10:05:20.558Z,15.80
2019-03-29T10:07:49.081Z,16.00
2019-03-29T10:10:17.559Z,16.20
2019-03-29T10:12:45.958Z,16.30
2019-03-29T10:15:14.431Z,16.40
2019-03-29T10:17:42.830Z,16.60
2019-03-29T10:20:11.386Z,16.90
2019-03-29T10:22:39.821Z,17.10
2019-03-29T10:25:19.127Z,17.30
2019-03-29T10:27:38.522Z,17.50
2019-03-29T10:30:08.771Z,17.40
2019-03-29T10:32:37.174Z,17.30
2019-03-29T10:35:06.805Z,17.50
2019-03-29T10:37:35.223Z,17.50
2019-03-29T10:40:05.165Z,17.80
2019-03-29T10:42:33.583Z,18.00
2019-03-29T10:45:02.006Z,18.20
2019-03-29T10:47:43.058Z,18.40
2019-03-29T10:50:00.565Z,18.50
2019-03-29T10:52:29.038Z,18.70
2019-03-29T10:54:57.453Z,18.70
2019-03-29T10:57:25.851Z,18.70
2019-03-29T10:59:54.266Z,18.70
2019-03-29T11:02:22.692Z,18.60
2019-03-29T11:04:51.408Z,18.60
2019-03-29T11:07:19.847Z,18.70
2019-03-29T11:09:48.239Z,18.60
2019-03-29T11:12:16.652Z,18.70
2019-03-29T11:14:45.041Z,18.70
2019-03-29T11:17:13.483Z,18.60
2019-03-29T11:19:41.973Z,18.50
2019-03-29T11:22:10.416Z,18.60
2019-03-29T11:24:38.814Z,18.50
2019-03-29T11:27:07.233Z,18.70
2019-03-29T11:29:35.637Z,18.60
2019-03-29T11:32:04.120Z,18.50
2019-03-29T11:34:32.509Z,18.60
2019-03-29T11:37:00.923Z,18.60
2019-03-29T11:39:30.272Z,18.80
2019-03-29T11:41:58.922Z,18.90
2019-03-29T11:44:30.102Z,19.10
2019-03-29T11:46:57.451Z,19.20
2019-03-29T11:49:25.853Z,19.20
2019-03-29T11:51:54.330Z,19.20
2019-03-29T11:54:22.763Z,19.20
2019-03-29T11:56:51.183Z,19.10
2019-03-29T11:59:19.580Z,19.20
2019-03-29T12:01:47.982Z,19.20
2019-03-29T12:04:16.452Z,19.20
2019-03-29T12:06:44.848Z,19.10
2019-03-29T12:09:13.270Z,19.20
2019-03-29T12:11:41.671Z,19.10
2019-03-29T12:14:10.083Z,19.20
2019-03-29T12:16:38.539Z,19.30
2019-03-29T12:19:07.016Z,19.30
2019-03-29T12:21:35.531Z,19.50
2019-03-29T12:24:04.124Z,19.50
2019-03-29T12:26:32.587Z,19.50
2019-03-29T12:29:01.057Z,19.60
2019-03-29T12:31:29.616Z,19.40
2019-03-29T12:33:58.096Z,19.40
2019-03-29T12:36:26.501Z,19.60
2019-03-29T12:38:54.904Z,19.80
2019-03-29T12:41:23.317Z,19.80
2019-03-29T12:43:55.957Z,19.80
2019-03-29T12:46:21.860Z,19.70
2019-03-29T12:48:50.633Z,19.70
2019-03-29T12:51:19.159Z,19.70
2019-03-29T12:53:47.608Z,19.80
2019-03-29T12:56:16.032Z,19.70
2019-03-29T12:58:44.417Z,19.50
2019-03-29T13:01:12.955Z,19.60
2019-03-29T13:03:41.353Z,19.80
2019-03-29T13:06:09.803Z,19.90
2019-03-29T13:08:38.214Z,20.10
2019-03-29T13:11:06.688Z,20.10
2019-03-29T13:13:35.080Z,19.90
2019-03-29T13:16:03.560Z,19.80
2019-03-29T13:18:31.963Z,19.90
2019-03-29T13:21:00.380Z,20.00
2019-03-29T13:23:28.842Z,20.10
2019-03-29T13:25:57.249Z,20.20
2019-03-29T13:28:25.667Z,20.00
2019-03-29T13:30:54.076Z,19.70
2019-03-29T13:33:22.480Z,19.80
2019-03-29T13:35:50.893Z,19.80
2019-03-29T13:38:20.683Z,19.80
2019-03-29T13:40:49.346Z,20.00
2019-03-29T13:43:17.753Z,19.90
2019-03-29T13:45:46.432Z,19.90
2019-03-29T13:48:14.898Z,20.00
2019-03-29T13:50:43.406Z,20.00
2019-03-29T13:53:11.870Z,20.00
2019-03-29T13:55:40.276Z,19.90
2019-03-29T13:58:08.702Z,19.70
2019-03-29T14:00:37.105Z,19.70
2019-03-29T14:03:05.540Z,19.70
2019-03-29T14:05:33.941Z,19.80
2019-03-29T14:08:02.383Z,20.00
2019-03-29T14:10:30.790Z,20.00
2019-03-29T14:12:59.211Z,19.90
2019-03-29T14:15:27.637Z,20.10
2019-03-29T14:17:56.055Z,20.10
2019-03-29T14:20:32.661Z,19.90
2019-03-29T14:23:01.926Z,19.70
2019-03-29T14:25:30.407Z,19.60
2019-03-29T14:27:58.901Z,19.70
2019-03-29T14:30:27.290Z,19.80
2019-03-29T14:32:55.718Z,19.70
2019-03-29T14:35:24.122Z,19.70
2019-03-29T14:37:52.543Z,19.80
2019-03-29T14:40:20.934Z,19.80
2019-03-29T14:42:49.358Z,19.80
2019-03-29T14:45:17.759Z,19.80
2019-03-29T14:47:46.158Z,20.00
2019-03-29T14:50:14.893Z,20.10
2019-03-29T14:52:44.325Z,20.20
2019-03-29T14:55:12.864Z,20.30
2019-03-29T14:57:41.270Z,20.30
2019-03-29T15:00:13.308Z,20.40
2019-03-29T15:02:41.796Z,20.40
2019-03-29T15:05:10.539Z,20.30
2019-03-29T15:07:42.213Z,20.30
2019-03-29T15:10:27.449Z,20.20
2019-03-29T15:12:56.717Z,20.10
2019-03-29T15:15:25.511Z,20.00
2019-03-29T15:17:54.290Z,19.90
2019-03-29T15:20:22.687Z,19.90
2019-03-29T15:22:51.153Z,20.00
2019-03-29T15:25:19.641Z,20.00
2019-03-29T15:27:48.068Z,20.00
2019-03-29T15:30:16.607Z,19.80
2019-03-29T15:32:46.026Z,19.80
2019-03-29T15:35:14.434Z,19.80
2019-03-29T15:37:42.848Z,19.70
2019-03-29T15:40:11.309Z,19.80
2019-03-29T15:42:39.777Z,19.80
2019-03-29T15:45:20.237Z,19.70
2019-03-29T15:47:44.236Z,19.70
2019-03-29T15:50:32.028Z,19.60
2019-03-29T15:53:01.432Z,19.70
2019-03-29T15:55:29.831Z,19.70
2019-03-29T15:57:58.247Z,19.70
2019-03-29T16:00:26.646Z,19.60
2019-03-29T16:02:55.058Z,19.50
2019-03-29T16:05:23.484Z,19.50
2019-03-29T16:07:51.876Z,19.60
2019-03-29T16:10:20.278Z,19.50
2019-03-29T16:12:48.702Z,19.30
2019-03-29T16:15:17.086Z,19.30
2019-03-29T16:17:45.507Z,19.40
2019-03-29T16:20:13.912Z,19.40
2019-03-29T16:22:42.374Z,19.30
2019-03-29T16:25:10.910Z,19.30
2019-03-29T16:27:39.324Z,19.40
2019-03-29T16:30:13.904Z,19.30
2019-03-29T16:32:42.384Z,19.20
2019-03-29T16:35:10.788Z,19.20
2019-03-29T16:37:39.194Z,19.10
2019-03-29T16:40:07.842Z,19.10
2019-03-29T16:42:36.598Z,19.00
2019-03-29T16:45:06.737Z,19.10
2019-03-29T16:47:35.147Z,19.20
2019-03-29T16:50:05.560Z,19.40
2019-03-29T16:52:33.956Z,19.60
2019-03-29T16:55:12.398Z,19.90
2019-03-29T16:57:32.508Z,20.20
2019-03-29T17:00:00.915Z,20.40
2019-03-29T17:02:29.306Z,20.50
2019-03-29T17:04:57.727Z,20.60
2019-03-29T17:07:26.139Z,20.70
2019-03-29T17:09:54.549Z,20.70
2019-03-29T17:12:22.933Z,20.60
2019-03-29T17:14:51.350Z,20.60
2019-03-29T17:17:20.017Z,20.30
2019-03-29T17:19:48.443Z,20.30
2019-03-29T17:22:16.835Z,20.20
2019-03-29T17:24:56.427Z,20.10
2019-03-29T17:27:15.380Z,19.80
2019-03-29T17:29:43.810Z,19.60
2019-03-29T17:32:12.208Z,19.40
2019-03-29T17:34:40.614Z,19.10
2019-03-29T17:37:10.022Z,18.80
2019-03-29T17:39:38.460Z,18.40
2019-03-29T17:42:06.873Z,18.10
2019-03-29T17:44:35.273Z,17.80
2019-03-29T17:47:03.757Z,17.50
2019-03-29T17:49:32.190Z,17.10
2019-03-29T17:52:00.596Z,16.90
2019-03-29T17:54:29.015Z,16.60
2019-03-29T17:56:57.397Z,16.30
2019-03-29T17:59:25.846Z,16.10
2019-03-29T18:02:08.567Z,15.90
2019-03-29T18:04:24.380Z,15.70
2019-03-29T18:06:52.771Z,15.60
2019-03-29T18:09:21.200Z,15.40
2019-03-29T18:11:49.617Z,15.30
2019-03-29T18:14:18.037Z,15.20
2019-03-29T18:16:46.444Z,15.00
2019-03-29T18:19:14.859Z,14.90
2019-03-29T18:21:43.273Z,14.70
2019-03-29T18:24:11.693Z,14.60
2019-03-29T18:26:40.086Z,14.50
2019-03-29T18:29:08.529Z,14.40
2019-03-29T18:31:37.554Z,14.30
2019-03-29T18:34:05.993Z,14.20
2019-03-29T18:36:34.545Z,13.90
2019-03-29T18:39:04.300Z,13.80
2019-03-29T18:41:32.698Z,13.60
2019-03-29T18:44:01.090Z,13.50
2019-03-29T18:46:43.510Z,13.40
2019-03-29T18:48:59.656Z,13.20
2019-03-29T18:51:28.088Z,13.00
2019-03-29T18:53:56.508Z,12.80
2019-03-29T18:56:25.019Z,12.60
2019-03-29T18:58:53.503Z,12.40
2019-03-29T19:01:21.999Z,12.20
2019-03-29T19:03:50.413Z,12.10
2019-03-29T19:06:18.882Z,12.00
2019-03-29T19:08:47.295Z,11.80
2019-03-29T19:11:15.729Z,11.80
2019-03-29T19:13:44.175Z,11.70
2019-03-29T19:16:12.614Z,11.70
2019-03-29T19:18:41.023Z,11.60
2019-03-29T19:21:09.775Z,11.60
2019-03-29T19:23:38.183Z,11.50
2019-03-29T19:26:06.889Z,11.40
2019-03-29T19:28:35.432Z,11.30
2019-03-29T19:31:04.035Z,11.20
2019-03-29T19:33:32.529Z,11.20
2019-03-29T19:36:01.010Z,11.30
2019-03-29T19:38:29.446Z,11.30
2019-03-29T19:40:57.878Z,11.40
2019-03-29T19:43:26.274Z,11.30
2019-03-29T19:45:54.763Z,11.30
2019-03-29T19:48:23.334Z,11.20
2019-03-29T19:50:51.877Z,11.20
2019-03-29T19:53:20.367Z,11.20
2019-03-29T19:55:48.814Z,11.20
2019-03-29T19:58:17.339Z,11.10
2019-03-29T20:00:46.109Z,11.10
2019-03-29T20:03:14.583Z,11.10
2019-03-29T20:05:43.011Z,11.10
2019-03-29T20:08:11.478Z,11.00
2019-03-29T20:10:39.959Z,10.90
2019-03-29T20:13:08.582Z,10.90
2019-03-29T20:15:37.410Z,10.80
2019-03-29T20:18:05.973Z,10.70
2019-03-29T20:20:34.448Z,10.70
2019-03-29T20:23:02.908Z,10.70
2019-03-29T20:25:31.388Z,10.70
2019-03-29T20:27:59.811Z,10.70
2019-03-29T20:30:28.307Z,10.70
2019-03-29T20:32:56.770Z,10.70
2019-03-29T20:35:25.196Z,10.60
2019-03-29T20:37:53.643Z,10.60
2019-03-29T20:40:22.178Z,10.50
2019-03-29T20:42:50.591Z,10.50
2019-03-29T20:45:19.140Z,10.50
2019-03-29T20:47:51.042Z,10.50
2019-03-29T20:50:17.802Z,10.50
2019-03-29T20:52:46.358Z,10.40
2019-03-29T20:55:34.140Z,10.40
2019-03-29T20:58:02.580Z,10.30
2019-03-29T21:00:30.975Z,10.30
2019-03-29T21:02:59.412Z,10.20
2019-03-29T21:05:27.934Z,10.20
2019-03-29T21:07:56.472Z,10.10
2019-03-29T21:10:24.968Z,10.10
2019-03-29T21:12:53.533Z,10.00
2019-03-29T21:15:21.962Z,10.00
2019-03-29T21:17:56.664Z,9.90
2019-03-29T21:20:20.539Z,9.80
2019-03-29T21:23:01.658Z,9.70
2019-03-29T21:25:30.065Z,9.70
2019-03-29T21:27:58.571Z,9.50
2019-03-29T21:30:27.001Z,9.50
2019-03-29T21:32:55.416Z,9.40
2019-03-29T21:35:23.823Z,9.40
2019-03-29T21:37:52.240Z,9.30
2019-03-29T21:40:40.034Z,9.30
2019-03-29T21:43:08.461Z,9.20
2019-03-29T21:45:37.834Z,9.20
2019-03-29T21:48:27.321Z,9.10
2019-03-29T21:50:36.364Z,9.00
2019-03-29T21:53:04.859Z,9.00
2019-03-29T21:55:33.314Z,8.90
2019-03-29T21:58:01.768Z,8.80
2019-03-29T22:00:30.159Z,8.80
2019-03-29T22:02:58.586Z,8.70
2019-03-29T22:05:26.981Z,8.60
2019-03-29T22:07:55.412Z,8.60
2019-03-29T22:10:23.811Z,8.40
2019-03-29T22:12:52.221Z,8.40
2019-03-29T22:15:20.629Z,8.30
2019-03-29T22:17:49.041Z,8.20
2019-03-29T22:20:17.435Z,8.10
2019-03-29T22:22:45.881Z,8.10
2019-03-29T22:25:14.342Z,8.10
2019-03-29T22:27:42.846Z,8.00
2019-03-29T22:30:11.599Z,7.90
2019-03-29T22:32:40.016Z,7.80
2019-03-29T22:35:08.853Z,7.70
2019-03-29T22:37:37.266Z,7.70
2019-03-29T22:40:07.709Z,7.60
2019-03-29T22:42:36.150Z,7.70
2019-03-29T22:45:07.076Z,7.60
2019-03-29T22:47:35.502Z,7.50
2019-03-29T22:50:05.327Z,7.50
2019-03-29T22:52:33.747Z,7.50
2019-03-29T22:55:02.142Z,7.40
2019-03-29T22:57:30.641Z,7.40
2019-03-29T22:59:59.041Z,7.40
2019-03-29T23:02:27.520Z,7.30
2019-03-29T23:04:55.965Z,7.30
2019-03-29T23:07:24.369Z,7.30
2019-03-29T23:09:52.774Z,7.30
2019-03-29T23:12:21.181Z,7.30
2019-03-29T23:14:49.580Z,7.30
2019-03-29T23:17:17.981Z,7.30
2019-03-29T23:19:46.384Z,7.20
2019-03-29T23:22:14.769Z,7.20
2019-03-29T23:24:43.173Z,7.20
2019-03-29T23:27:11.666Z,7.10
2019-03-29T23:29:40.077Z,7.00
2019-03-29T23:32:08.475Z,7.00
2019-03-29T23:34:36.887Z,6.90
2019-03-29T23:37:05.269Z,6.80
2019-03-29T23:39:33.715Z,6.70
2019-03-29T23:42:02.102Z,6.60
2019-03-29T23:44:30.523Z,6.60
2019-03-29T23:46:58.918Z,6.50
2019-03-29T23:49:27.336Z,6.50
2019-03-29T23:51:55.738Z,6.50
2019-03-29T23:54:24.164Z,6.50
2019-03-29T23:56:52.549Z,6.50
2019-03-29T23:59:20.972Z,6.60
